sensor_id;sensor_type;location;lat;lon;timestamp;temperature;humidity
71563;DHT22;59391;52.504;13.438;2022-12-18T00:02:05;-2.80;67.90
71563;DHT22;59391;52.504;13.438;2022-12-18T00:04:31;-2.90;68.10
71563;DHT22;59391;52.504;13.438;2022-12-18T00:06:56;-2.90;68.30
71563;DHT22;59391;52.504;13.438;2022-12-18T00:09:25;-2.90;68.60
71563;DHT22;59391;52.504;13.438;2022-12-18T00:11:50;-3.00;68.80
71563;DHT22;59391;52.504;13.438;2022-12-18T00:14:16;-3.00;69.00
71563;DHT22;59391;52.504;13.438;2022-12-18T00:16:46;-3.00;69.20
71563;DHT22;59391;52.504;13.438;2022-12-18T00:19:13;-3.10;69.30
71563;DHT22;59391;52.504;13.438;2022-12-18T00:21:40;-3.10;69.30
71563;DHT22;59391;52.504;13.438;2022-12-18T00:24:07;-3.10;69.30
71563;DHT22;59391;52.504;13.438;2022-12-18T00:26:35;-3.10;69.50
71563;DHT22;59391;52.504;13.438;2022-12-18T00:29:06;-3.10;69.50
71563;DHT22;59391;52.504;13.438;2022-12-18T00:31:35;-3.10;69.30
71563;DHT22;59391;52.504;13.438;2022-12-18T00:34:02;-3.10;68.60
71563;DHT22;59391;52.504;13.438;2022-12-18T00:36:30;-3.10;67.90
71563;DHT22;59391;52.504;13.438;2022-12-18T00:38:58;-3.10;67.90
71563;DHT22;59391;52.504;13.438;2022-12-18T00:41:24;-3.20;68.00
71563;DHT22;59391;52.504;13.438;2022-12-18T00:44:12;-3.20;68.10
71563;DHT22;59391;52.504;13.438;2022-12-18T00:46:39;-3.30;68.40
71563;DHT22;59391;52.504;13.438;2022-12-18T00:49:06;-3.30;68.80
71563;DHT22;59391;52.504;13.438;2022-12-18T00:51:32;-3.30;69.30
71563;DHT22;59391;52.504;13.438;2022-12-18T00:53:57;-3.40;69.30
71563;DHT22;59391;52.504;13.438;2022-12-18T00:56:24;-3.40;69.40
71563;DHT22;59391;52.504;13.438;2022-12-18T00:58:50;-3.40;69.40
71563;DHT22;59391;52.504;13.438;2022-12-18T01:01:16;-3.40;69.40
71563;DHT22;59391;52.504;13.438;2022-12-18T01:03:42;-3.40;69.40
71563;DHT22;59391;52.504;13.438;2022-12-18T01:06:09;-3.40;69.30
71563;DHT22;59391;52.504;13.438;2022-12-18T01:08:37;-3.40;69.20
71563;DHT22;59391;52.504;13.438;2022-12-18T01:11:11;-3.40;69.40
71563;DHT22;59391;52.504;13.438;2022-12-18T01:13:40;-3.40;69.50
71563;DHT22;59391;52.504;13.438;2022-12-18T01:16:06;-3.40;69.20
71563;DHT22;59391;52.504;13.438;2022-12-18T01:18:32;-3.40;69.00
71563;DHT22;59391;52.504;13.438;2022-12-18T01:20:57;-3.50;68.80
71563;DHT22;59391;52.504;13.438;2022-12-18T01:23:23;-3.50;68.60
71563;DHT22;59391;52.504;13.438;2022-12-18T01:25:52;-3.50;68.50
71563;DHT22;59391;52.504;13.438;2022-12-18T01:28:17;-3.50;68.50
71563;DHT22;59391;52.504;13.438;2022-12-18T01:30:43;-3.50;68.60
71563;DHT22;59391;52.504;13.438;2022-12-18T01:33:08;-3.60;68.60
71563;DHT22;59391;52.504;13.438;2022-12-18T01:35:40;-3.60;68.80
71563;DHT22;59391;52.504;13.438;2022-12-18T01:38:07;-3.60;68.90
71563;DHT22;59391;52.504;13.438;2022-12-18T01:40:32;-3.60;69.00
71563;DHT22;59391;52.504;13.438;2022-12-18T01:42:58;-3.60;69.20
71563;DHT22;59391;52.504;13.438;2022-12-18T01:45:32;-3.60;69.20
71563;DHT22;59391;52.504;13.438;2022-12-18T01:48:05;-3.60;68.90
71563;DHT22;59391;52.504;13.438;2022-12-18T01:50:38;-3.60;68.80
71563;DHT22;59391;52.504;13.438;2022-12-18T01:53:21;-3.60;68.70
71563;DHT22;59391;52.504;13.438;2022-12-18T01:55:52;-3.60;68.80
71563;DHT22;59391;52.504;13.438;2022-12-18T01:58:24;-3.60;68.90
71563;DHT22;59391;52.504;13.438;2022-12-18T02:01:01;-3.60;68.90
71563;DHT22;59391;52.504;13.438;2022-12-18T02:03:26;-3.60;68.90
71563;DHT22;59391;52.504;13.438;2022-12-18T02:06:12;-3.60;68.70
71563;DHT22;59391;52.504;13.438;2022-12-18T02:09:02;-3.60;68.40
71563;DHT22;59391;52.504;13.438;2022-12-18T02:11:56;-3.60;68.30
71563;DHT22;59391;52.504;13.438;2022-12-18T02:14:40;-3.70;68.30
71563;DHT22;59391;52.504;13.438;2022-12-18T02:17:40;-3.70;68.30
71563;DHT22;59391;52.504;13.438;2022-12-18T02:20:20;-3.70;68.50
71563;DHT22;59391;52.504;13.438;2022-12-18T02:23:12;-3.70;68.50
71563;DHT22;59391;52.504;13.438;2022-12-18T02:26:20;-3.70;68.50
71563;DHT22;59391;52.504;13.438;2022-12-18T02:29:01;-3.70;68.30
71563;DHT22;59391;52.504;13.438;2022-12-18T02:31:36;-3.70;68.20
71563;DHT22;59391;52.504;13.438;2022-12-18T02:34:07;-3.80;68.20
71563;DHT22;59391;52.504;13.438;2022-12-18T02:36:35;-3.80;68.30
71563;DHT22;59391;52.504;13.438;2022-12-18T02:39:07;-3.80;68.50
71563;DHT22;59391;52.504;13.438;2022-12-18T02:41:35;-3.80;68.70
71563;DHT22;59391;52.504;13.438;2022-12-18T02:44:08;-3.80;68.30
71563;DHT22;59391;52.504;13.438;2022-12-18T02:46:38;-3.80;68.10
71563;DHT22;59391;52.504;13.438;2022-12-18T02:52:34;-3.80;68.50
71563;DHT22;59391;52.504;13.438;2022-12-18T02:55:29;-3.80;68.40
71563;DHT22;59391;52.504;13.438;2022-12-18T03:01:28;-3.90;68.20
71563;DHT22;59391;52.504;13.438;2022-12-18T03:04:14;-3.90;68.70
71563;DHT22;59391;52.504;13.438;2022-12-18T03:06:49;-3.90;69.20
71563;DHT22;59391;52.504;13.438;2022-12-18T03:09:28;-3.90;69.20
71563;DHT22;59391;52.504;13.438;2022-12-18T03:12:05;-3.80;69.10
71563;DHT22;59391;52.504;13.438;2022-12-18T03:17:33;-3.80;69.00
71563;DHT22;59391;52.504;13.438;2022-12-18T03:20:04;-3.90;69.10
71563;DHT22;59391;52.504;13.438;2022-12-18T03:22:34;-3.90;69.00
71563;DHT22;59391;52.504;13.438;2022-12-18T03:25:06;-3.90;69.10
71563;DHT22;59391;52.504;13.438;2022-12-18T03:27:38;-3.90;69.20
71563;DHT22;59391;52.504;13.438;2022-12-18T03:30:09;-3.80;69.20
71563;DHT22;59391;52.504;13.438;2022-12-18T03:35:37;-3.80;68.50
71563;DHT22;59391;52.504;13.438;2022-12-18T03:38:06;-3.80;68.50
71563;DHT22;59391;52.504;13.438;2022-12-18T03:40:53;-3.80;68.50
71563;DHT22;59391;52.504;13.438;2022-12-18T03:43:51;-3.80;68.40
71563;DHT22;59391;52.504;13.438;2022-12-18T03:46:46;-3.90;68.30
71563;DHT22;59391;52.504;13.438;2022-12-18T03:49:28;-3.90;68.20
71563;DHT22;59391;52.504;13.438;2022-12-18T03:52:30;-3.90;68.10
71563;DHT22;59391;52.504;13.438;2022-12-18T03:55:03;-3.90;68.10
71563;DHT22;59391;52.504;13.438;2022-12-18T03:57:31;-3.90;68.10
71563;DHT22;59391;52.504;13.438;2022-12-18T04:00:08;-3.90;68.20
71563;DHT22;59391;52.504;13.438;2022-12-18T04:02:38;-4.00;68.20
71563;DHT22;59391;52.504;13.438;2022-12-18T04:05:10;-4.00;68.40
71563;DHT22;59391;52.504;13.438;2022-12-18T04:07:38;-4.00;68.50
71563;DHT22;59391;52.504;13.438;2022-12-18T04:10:06;-4.00;68.70
71563;DHT22;59391;52.504;13.438;2022-12-18T04:12:37;-4.00;68.80
71563;DHT22;59391;52.504;13.438;2022-12-18T04:15:04;-4.00;68.80
71563;DHT22;59391;52.504;13.438;2022-12-18T04:17:30;-4.00;68.90
71563;DHT22;59391;52.504;13.438;2022-12-18T04:19:56;-4.00;68.70
71563;DHT22;59391;52.504;13.438;2022-12-18T04:22:22;-4.00;68.70
71563;DHT22;59391;52.504;13.438;2022-12-18T04:24:47;-3.90;68.60
71563;DHT22;59391;52.504;13.438;2022-12-18T04:27:13;-3.90;68.40
71563;DHT22;59391;52.504;13.438;2022-12-18T04:29:39;-4.00;68.60
71563;DHT22;59391;52.504;13.438;2022-12-18T04:32:05;-3.90;68.70
71563;DHT22;59391;52.504;13.438;2022-12-18T04:34:30;-3.90;68.60
71563;DHT22;59391;52.504;13.438;2022-12-18T04:36:56;-3.90;68.50
71563;DHT22;59391;52.504;13.438;2022-12-18T04:39:22;-4.00;68.60
71563;DHT22;59391;52.504;13.438;2022-12-18T04:41:47;-4.00;68.60
71563;DHT22;59391;52.504;13.438;2022-12-18T04:44:13;-4.00;68.60
71563;DHT22;59391;52.504;13.438;2022-12-18T04:46:39;-4.00;68.50
71563;DHT22;59391;52.504;13.438;2022-12-18T04:49:04;-4.00;68.50
71563;DHT22;59391;52.504;13.438;2022-12-18T04:51:30;-4.00;68.50
71563;DHT22;59391;52.504;13.438;2022-12-18T04:53:56;-4.00;68.40
71563;DHT22;59391;52.504;13.438;2022-12-18T04:56:21;-4.00;68.60
71563;DHT22;59391;52.504;13.438;2022-12-18T04:58:50;-3.90;68.60
71563;DHT22;59391;52.504;13.438;2022-12-18T05:01:17;-3.90;68.60
71563;DHT22;59391;52.504;13.438;2022-12-18T05:03:43;-3.90;68.10
71563;DHT22;59391;52.504;13.438;2022-12-18T05:06:09;-3.90;68.00
71563;DHT22;59391;52.504;13.438;2022-12-18T05:08:35;-3.90;68.20
71563;DHT22;59391;52.504;13.438;2022-12-18T05:11:09;-3.90;68.00
71563;DHT22;59391;52.504;13.438;2022-12-18T05:13:36;-3.90;67.90
71563;DHT22;59391;52.504;13.438;2022-12-18T05:16:03;-3.90;67.70
71563;DHT22;59391;52.504;13.438;2022-12-18T05:18:31;-4.00;67.60
71563;DHT22;59391;52.504;13.438;2022-12-18T05:20:57;-4.00;67.80
71563;DHT22;59391;52.504;13.438;2022-12-18T05:23:23;-4.00;68.00
71563;DHT22;59391;52.504;13.438;2022-12-18T05:25:55;-4.10;68.10
71563;DHT22;59391;52.504;13.438;2022-12-18T05:28:27;-4.00;68.20
71563;DHT22;59391;52.504;13.438;2022-12-18T05:30:56;-4.00;68.40
71563;DHT22;59391;52.504;13.438;2022-12-18T05:33:25;-4.00;68.40
71563;DHT22;59391;52.504;13.438;2022-12-18T05:35:55;-4.00;68.40
71563;DHT22;59391;52.504;13.438;2022-12-18T05:38:24;-4.00;68.30
71563;DHT22;59391;52.504;13.438;2022-12-18T05:40:52;-4.00;68.40
71563;DHT22;59391;52.504;13.438;2022-12-18T05:43:19;-4.00;68.60
71563;DHT22;59391;52.504;13.438;2022-12-18T05:45:47;-4.00;68.70
71563;DHT22;59391;52.504;13.438;2022-12-18T05:50:42;-4.00;68.90
71563;DHT22;59391;52.504;13.438;2022-12-18T05:53:14;-4.00;68.90
71563;DHT22;59391;52.504;13.438;2022-12-18T05:55:41;-3.90;69.00
71563;DHT22;59391;52.504;13.438;2022-12-18T05:58:12;-4.00;69.20
71563;DHT22;59391;52.504;13.438;2022-12-18T06:00:43;-3.90;69.30
71563;DHT22;59391;52.504;13.438;2022-12-18T06:03:11;-3.90;69.30
71563;DHT22;59391;52.504;13.438;2022-12-18T06:05:44;-3.90;69.20
71563;DHT22;59391;52.504;13.438;2022-12-18T06:08:11;-3.90;69.10
71563;DHT22;59391;52.504;13.438;2022-12-18T06:10:41;-3.90;69.00
71563;DHT22;59391;52.504;13.438;2022-12-18T06:13:07;-3.90;68.90
71563;DHT22;59391;52.504;13.438;2022-12-18T06:15:37;-3.90;69.00
71563;DHT22;59391;52.504;13.438;2022-12-18T06:18:03;-3.90;68.90
71563;DHT22;59391;52.504;13.438;2022-12-18T06:20:29;-3.90;68.90
71563;DHT22;59391;52.504;13.438;2022-12-18T06:22:57;-3.90;69.00
71563;DHT22;59391;52.504;13.438;2022-12-18T06:25:22;-3.90;68.90
71563;DHT22;59391;52.504;13.438;2022-12-18T06:27:48;-3.90;69.00
71563;DHT22;59391;52.504;13.438;2022-12-18T06:30:14;-3.90;69.10
71563;DHT22;59391;52.504;13.438;2022-12-18T06:32:40;-3.80;68.80
71563;DHT22;59391;52.504;13.438;2022-12-18T06:35:06;-3.80;68.80
71563;DHT22;59391;52.504;13.438;2022-12-18T06:37:32;-3.80;68.90
71563;DHT22;59391;52.504;13.438;2022-12-18T06:39:57;-3.80;69.10
71563;DHT22;59391;52.504;13.438;2022-12-18T06:42:24;-3.80;69.10
71563;DHT22;59391;52.504;13.438;2022-12-18T06:44:50;-3.80;69.30
71563;DHT22;59391;52.504;13.438;2022-12-18T06:47:15;-3.80;69.10
71563;DHT22;59391;52.504;13.438;2022-12-18T06:49:41;-3.80;69.30
71563;DHT22;59391;52.504;13.438;2022-12-18T06:52:07;-3.80;69.20
71563;DHT22;59391;52.504;13.438;2022-12-18T06:54:32;-3.80;69.00
71563;DHT22;59391;52.504;13.438;2022-12-18T06:56:58;-3.80;68.90
71563;DHT22;59391;52.504;13.438;2022-12-18T06:59:23;-3.80;69.30
71563;DHT22;59391;52.504;13.438;2022-12-18T07:01:49;-3.80;69.10
71563;DHT22;59391;52.504;13.438;2022-12-18T07:04:15;-3.80;68.90
71563;DHT22;59391;52.504;13.438;2022-12-18T07:06:40;-3.80;69.00
71563;DHT22;59391;52.504;13.438;2022-12-18T07:09:06;-3.80;69.10
71563;DHT22;59391;52.504;13.438;2022-12-18T07:11:35;-3.80;68.90
71563;DHT22;59391;52.504;13.438;2022-12-18T07:14:00;-3.90;68.90
71563;DHT22;59391;52.504;13.438;2022-12-18T07:16:26;-3.90;68.80
71563;DHT22;59391;52.504;13.438;2022-12-18T07:18:55;-3.90;69.10
71563;DHT22;59391;52.504;13.438;2022-12-18T07:21:22;-3.90;69.10
71563;DHT22;59391;52.504;13.438;2022-12-18T07:23:49;-3.90;69.00
71563;DHT22;59391;52.504;13.438;2022-12-18T07:26:17;-4.00;69.00
71563;DHT22;59391;52.504;13.438;2022-12-18T07:28:45;-3.90;69.20
71563;DHT22;59391;52.504;13.438;2022-12-18T07:31:14;-4.00;69.20
71563;DHT22;59391;52.504;13.438;2022-12-18T07:33:42;-4.00;69.40
71563;DHT22;59391;52.504;13.438;2022-12-18T07:36:09;-4.00;69.30
71563;DHT22;59391;52.504;13.438;2022-12-18T07:38:36;-4.00;69.40
71563;DHT22;59391;52.504;13.438;2022-12-18T07:41:07;-4.00;69.60
71563;DHT22;59391;52.504;13.438;2022-12-18T07:43:35;-4.00;69.80
71563;DHT22;59391;52.504;13.438;2022-12-18T07:46:01;-3.90;70.00
71563;DHT22;59391;52.504;13.438;2022-12-18T07:48:28;-3.90;70.00
71563;DHT22;59391;52.504;13.438;2022-12-18T07:51:01;-3.90;70.00
71563;DHT22;59391;52.504;13.438;2022-12-18T07:53:28;-3.80;70.10
71563;DHT22;59391;52.504;13.438;2022-12-18T07:56:02;-3.80;69.60
71563;DHT22;59391;52.504;13.438;2022-12-18T07:58:31;-3.80;69.20
71563;DHT22;59391;52.504;13.438;2022-12-18T08:01:08;-3.80;68.80
71563;DHT22;59391;52.504;13.438;2022-12-18T08:03:36;-3.80;68.50
71563;DHT22;59391;52.504;13.438;2022-12-18T08:06:04;-3.80;68.50
71563;DHT22;59391;52.504;13.438;2022-12-18T08:08:32;-3.80;68.30
71563;DHT22;59391;52.504;13.438;2022-12-18T08:10:58;-3.80;68.40
71563;DHT22;59391;52.504;13.438;2022-12-18T08:13:24;-3.90;68.60
71563;DHT22;59391;52.504;13.438;2022-12-18T08:15:57;-3.90;68.80
71563;DHT22;59391;52.504;13.438;2022-12-18T08:18:33;-3.80;69.10
71563;DHT22;59391;52.504;13.438;2022-12-18T08:21:18;-3.80;68.50
71563;DHT22;59391;52.504;13.438;2022-12-18T08:23:47;-3.80;68.30
71563;DHT22;59391;52.504;13.438;2022-12-18T08:26:13;-3.80;68.30
71563;DHT22;59391;52.504;13.438;2022-12-18T08:28:40;-3.90;68.40
71563;DHT22;59391;52.504;13.438;2022-12-18T08:31:07;-3.80;68.60
71563;DHT22;59391;52.504;13.438;2022-12-18T08:33:34;-3.80;68.90
71563;DHT22;59391;52.504;13.438;2022-12-18T08:36:03;-3.80;68.50
71563;DHT22;59391;52.504;13.438;2022-12-18T08:38:29;-3.70;68.40
71563;DHT22;59391;52.504;13.438;2022-12-18T08:41:09;-3.70;68.40
71563;DHT22;59391;52.504;13.438;2022-12-18T08:43:37;-3.70;68.30
71563;DHT22;59391;52.504;13.438;2022-12-18T08:46:23;-3.70;68.10
71563;DHT22;59391;52.504;13.438;2022-12-18T08:48:51;-3.60;68.20
71563;DHT22;59391;52.504;13.438;2022-12-18T08:51:18;-3.60;68.10
71563;DHT22;59391;52.504;13.438;2022-12-18T08:53:45;-3.60;68.40
71563;DHT22;59391;52.504;13.438;2022-12-18T08:56:12;-3.60;68.40
71563;DHT22;59391;52.504;13.438;2022-12-18T08:58:39;-3.50;68.20
71563;DHT22;59391;52.504;13.438;2022-12-18T09:01:08;-3.50;68.10
71563;DHT22;59391;52.504;13.438;2022-12-18T09:03:35;-3.50;68.20
71563;DHT22;59391;52.504;13.438;2022-12-18T09:06:01;-3.50;68.40
71563;DHT22;59391;52.504;13.438;2022-12-18T09:08:27;-3.40;68.20
71563;DHT22;59391;52.504;13.438;2022-12-18T09:10:53;-3.40;68.10
71563;DHT22;59391;52.504;13.438;2022-12-18T09:13:19;-3.40;68.00
71563;DHT22;59391;52.504;13.438;2022-12-18T09:15:50;-3.30;68.00
71563;DHT22;59391;52.504;13.438;2022-12-18T09:18:19;-3.30;68.00
71563;DHT22;59391;52.504;13.438;2022-12-18T09:20:46;-3.20;68.00
71563;DHT22;59391;52.504;13.438;2022-12-18T09:23:12;-3.20;67.80
71563;DHT22;59391;52.504;13.438;2022-12-18T09:25:38;-3.20;67.90
71563;DHT22;59391;52.504;13.438;2022-12-18T09:28:09;-3.20;67.70
71563;DHT22;59391;52.504;13.438;2022-12-18T09:30:47;-3.20;67.80
71563;DHT22;59391;52.504;13.438;2022-12-18T09:33:15;-3.10;67.50
71563;DHT22;59391;52.504;13.438;2022-12-18T09:35:43;-3.10;67.10
71563;DHT22;59391;52.504;13.438;2022-12-18T09:38:15;-3.10;67.20
71563;DHT22;59391;52.504;13.438;2022-12-18T09:40:49;-3.00;67.30
71563;DHT22;59391;52.504;13.438;2022-12-18T09:43:40;-3.00;67.60
71563;DHT22;59391;52.504;13.438;2022-12-18T09:46:23;-3.00;67.90
71563;DHT22;59391;52.504;13.438;2022-12-18T09:48:56;-3.00;68.10
71563;DHT22;59391;52.504;13.438;2022-12-18T09:51:47;-3.00;68.40
71563;DHT22;59391;52.504;13.438;2022-12-18T09:54:22;-3.00;68.60
71563;DHT22;59391;52.504;13.438;2022-12-18T09:56:51;-2.90;69.00
71563;DHT22;59391;52.504;13.438;2022-12-18T09:59:37;-2.90;68.90
71563;DHT22;59391;52.504;13.438;2022-12-18T10:02:21;-2.90;69.10
71563;DHT22;59391;52.504;13.438;2022-12-18T10:10:51;-2.80;69.30
71563;DHT22;59391;52.504;13.438;2022-12-18T10:13:23;-2.80;69.30
71563;DHT22;59391;52.504;13.438;2022-12-18T10:16:17;-2.80;69.30
71563;DHT22;59391;52.504;13.438;2022-12-18T10:19:16;-2.80;69.50
71563;DHT22;59391;52.504;13.438;2022-12-18T10:21:55;-2.70;69.60
71563;DHT22;59391;52.504;13.438;2022-12-18T10:24:42;-2.70;69.50
71563;DHT22;59391;52.504;13.438;2022-12-18T10:27:18;-2.60;69.40
71563;DHT22;59391;52.504;13.438;2022-12-18T10:29:48;-2.60;69.60
71563;DHT22;59391;52.504;13.438;2022-12-18T10:32:25;-2.60;69.60
71563;DHT22;59391;52.504;13.438;2022-12-18T10:34:55;-2.60;69.50
71563;DHT22;59391;52.504;13.438;2022-12-18T10:37:25;-2.50;69.70
71563;DHT22;59391;52.504;13.438;2022-12-18T10:40:11;-2.50;70.00
71563;DHT22;59391;52.504;13.438;2022-12-18T10:42:39;-2.40;70.20
71563;DHT22;59391;52.504;13.438;2022-12-18T10:45:16;-2.40;69.90
71563;DHT22;59391;52.504;13.438;2022-12-18T10:47:49;-2.30;69.90
71563;DHT22;59391;52.504;13.438;2022-12-18T10:50:31;-2.30;70.00
71563;DHT22;59391;52.504;13.438;2022-12-18T10:53:00;-2.20;70.00
71563;DHT22;59391;52.504;13.438;2022-12-18T10:55:35;-2.20;70.00
71563;DHT22;59391;52.504;13.438;2022-12-18T10:58:25;-2.10;70.00
71563;DHT22;59391;52.504;13.438;2022-12-18T11:01:12;-2.00;70.30
71563;DHT22;59391;52.504;13.438;2022-12-18T11:04:01;-2.00;70.00
71563;DHT22;59391;52.504;13.438;2022-12-18T11:06:32;-1.90;69.90
71563;DHT22;59391;52.504;13.438;2022-12-18T11:09:03;-1.90;69.80
71563;DHT22;59391;52.504;13.438;2022-12-18T11:11:31;-1.90;69.60
71563;DHT22;59391;52.504;13.438;2022-12-18T11:14:01;-1.90;69.50
71563;DHT22;59391;52.504;13.438;2022-12-18T11:16:36;-1.90;69.50
71563;DHT22;59391;52.504;13.438;2022-12-18T11:19:36;-1.90;69.30
71563;DHT22;59391;52.504;13.438;2022-12-18T11:22:23;-1.90;69.30
71563;DHT22;59391;52.504;13.438;2022-12-18T11:25:05;-1.90;68.90
71563;DHT22;59391;52.504;13.438;2022-12-18T11:27:38;-1.90;68.20
71563;DHT22;59391;52.504;13.438;2022-12-18T11:33:18;-2.00;68.30
71563;DHT22;59391;52.504;13.438;2022-12-18T11:35:56;-2.00;68.40
71563;DHT22;59391;52.504;13.438;2022-12-18T11:38:33;-2.00;68.50
71563;DHT22;59391;52.504;13.438;2022-12-18T11:44:18;-2.00;69.10
71563;DHT22;59391;52.504;13.438;2022-12-18T11:46:53;-2.00;69.10
71563;DHT22;59391;52.504;13.438;2022-12-18T11:49:32;-1.90;69.30
71563;DHT22;59391;52.504;13.438;2022-12-18T11:52:21;-1.90;69.20
71563;DHT22;59391;52.504;13.438;2022-12-18T11:54:56;-1.90;69.20
71563;DHT22;59391;52.504;13.438;2022-12-18T11:57:54;-1.90;69.10
71563;DHT22;59391;52.504;13.438;2022-12-18T12:00:39;-1.90;69.20
71563;DHT22;59391;52.504;13.438;2022-12-18T12:06:46;-1.80;69.10
71563;DHT22;59391;52.504;13.438;2022-12-18T12:09:32;-1.80;69.20
71563;DHT22;59391;52.504;13.438;2022-12-18T12:12:50;-1.80;69.10
71563;DHT22;59391;52.504;13.438;2022-12-18T12:15:39;-1.80;69.00
71563;DHT22;59391;52.504;13.438;2022-12-18T12:18:29;-1.70;68.90
71563;DHT22;59391;52.504;13.438;2022-12-18T12:24:00;-1.70;68.60
71563;DHT22;59391;52.504;13.438;2022-12-18T12:26:48;-1.70;68.50
71563;DHT22;59391;52.504;13.438;2022-12-18T12:36:38;-1.60;68.20
71563;DHT22;59391;52.504;13.438;2022-12-18T12:39:19;-1.60;67.80
71563;DHT22;59391;52.504;13.438;2022-12-18T12:41:48;-1.60;67.90
71563;DHT22;59391;52.504;13.438;2022-12-18T12:44:39;-1.60;67.90
71563;DHT22;59391;52.504;13.438;2022-12-18T12:47:18;-1.60;68.30
71563;DHT22;59391;52.504;13.438;2022-12-18T12:49:47;-1.60;68.20
71563;DHT22;59391;52.504;13.438;2022-12-18T12:52:27;-1.60;68.20
71563;DHT22;59391;52.504;13.438;2022-12-18T12:54:56;-1.60;67.90
71563;DHT22;59391;52.504;13.438;2022-12-18T12:57:34;-1.50;68.00
71563;DHT22;59391;52.504;13.438;2022-12-18T13:00:11;-1.50;67.90
71563;DHT22;59391;52.504;13.438;2022-12-18T13:05:34;-1.50;67.60
71563;DHT22;59391;52.504;13.438;2022-12-18T13:08:11;-1.60;67.70
71563;DHT22;59391;52.504;13.438;2022-12-18T13:12:21;-1.60;67.70
71563;DHT22;59391;52.504;13.438;2022-12-18T13:14:42;-1.60;67.90
71563;DHT22;59391;52.504;13.438;2022-12-18T13:19:52;-1.50;68.00
71563;DHT22;59391;52.504;13.438;2022-12-18T13:22:37;-1.50;67.80
71563;DHT22;59391;52.504;13.438;2022-12-18T13:25:28;-1.50;67.50
71563;DHT22;59391;52.504;13.438;2022-12-18T13:28:03;-1.50;67.70
71563;DHT22;59391;52.504;13.438;2022-12-18T13:41:23;-1.60;68.10
71563;DHT22;59391;52.504;13.438;2022-12-18T13:43:55;-1.60;68.10
71563;DHT22;59391;52.504;13.438;2022-12-18T13:46:30;-1.60;67.90
71563;DHT22;59391;52.504;13.438;2022-12-18T13:51:42;-1.60;68.20
71563;DHT22;59391;52.504;13.438;2022-12-18T13:54:35;-1.60;67.90
71563;DHT22;59391;52.504;13.438;2022-12-18T13:57:05;-1.60;67.20
71563;DHT22;59391;52.504;13.438;2022-12-18T13:59:51;-1.70;67.00
71563;DHT22;59391;52.504;13.438;2022-12-18T14:02:21;-1.70;67.40
71563;DHT22;59391;52.504;13.438;2022-12-18T14:04:49;-1.70;67.70
71563;DHT22;59391;52.504;13.438;2022-12-18T14:07:17;-1.80;68.00
71563;DHT22;59391;52.504;13.438;2022-12-18T14:09:55;-1.80;68.10
71563;DHT22;59391;52.504;13.438;2022-12-18T14:12:24;-1.80;67.90
71563;DHT22;59391;52.504;13.438;2022-12-18T14:17:56;-1.80;68.00
71563;DHT22;59391;52.504;13.438;2022-12-18T14:20:25;-1.80;68.00
71563;DHT22;59391;52.504;13.438;2022-12-18T14:22:53;-1.80;68.10
71563;DHT22;59391;52.504;13.438;2022-12-18T14:25:25;-1.80;68.30
71563;DHT22;59391;52.504;13.438;2022-12-18T14:28:01;-1.80;68.50
71563;DHT22;59391;52.504;13.438;2022-12-18T14:30:30;-1.80;68.70
71563;DHT22;59391;52.504;13.438;2022-12-18T14:33:04;-1.80;68.80
71563;DHT22;59391;52.504;13.438;2022-12-18T14:35:56;-1.80;68.90
71563;DHT22;59391;52.504;13.438;2022-12-18T14:38:39;-1.80;69.00
71563;DHT22;59391;52.504;13.438;2022-12-18T14:41:10;-1.80;68.70
71563;DHT22;59391;52.504;13.438;2022-12-18T14:43:40;-1.80;68.90
71563;DHT22;59391;52.504;13.438;2022-12-18T14:48:59;-1.80;68.90
71563;DHT22;59391;52.504;13.438;2022-12-18T14:51:33;-1.80;68.70
71563;DHT22;59391;52.504;13.438;2022-12-18T14:54:04;-1.80;68.70
71563;DHT22;59391;52.504;13.438;2022-12-18T14:56:49;-1.80;68.80
71563;DHT22;59391;52.504;13.438;2022-12-18T14:59:23;-1.80;68.60
71563;DHT22;59391;52.504;13.438;2022-12-18T15:02:04;-1.90;68.70
71563;DHT22;59391;52.504;13.438;2022-12-18T15:04:41;-1.90;68.60
71563;DHT22;59391;52.504;13.438;2022-12-18T15:07:20;-1.90;68.30
71563;DHT22;59391;52.504;13.438;2022-12-18T15:12:41;-2.00;68.40
71563;DHT22;59391;52.504;13.438;2022-12-18T15:18:13;-2.00;68.70
71563;DHT22;59391;52.504;13.438;2022-12-18T15:20:43;-2.00;68.60
71563;DHT22;59391;52.504;13.438;2022-12-18T15:23:23;-2.00;68.70
71563;DHT22;59391;52.504;13.438;2022-12-18T15:25:59;-2.00;68.80
71563;DHT22;59391;52.504;13.438;2022-12-18T15:31:29;-2.00;68.80
71563;DHT22;59391;52.504;13.438;2022-12-18T15:34:18;-2.00;68.90
71563;DHT22;59391;52.504;13.438;2022-12-18T15:36:45;-2.00;69.00
71563;DHT22;59391;52.504;13.438;2022-12-18T15:39:12;-2.00;69.10
71563;DHT22;59391;52.504;13.438;2022-12-18T15:41:41;-2.10;69.00
71563;DHT22;59391;52.504;13.438;2022-12-18T15:44:33;-2.00;68.80
71563;DHT22;59391;52.504;13.438;2022-12-18T15:47:13;-2.10;69.00
71563;DHT22;59391;52.504;13.438;2022-12-18T15:49:41;-2.10;69.10
71563;DHT22;59391;52.504;13.438;2022-12-18T15:52:12;-2.00;69.10
71563;DHT22;59391;52.504;13.438;2022-12-18T15:54:39;-2.00;69.10
71563;DHT22;59391;52.504;13.438;2022-12-18T15:57:23;-2.00;69.30
71563;DHT22;59391;52.504;13.438;2022-12-18T15:59:50;-2.00;69.30
71563;DHT22;59391;52.504;13.438;2022-12-18T16:02:18;-2.00;69.00
71563;DHT22;59391;52.504;13.438;2022-12-18T16:04:44;-2.00;68.60
71563;DHT22;59391;52.504;13.438;2022-12-18T16:07:13;-2.00;68.70
71563;DHT22;59391;52.504;13.438;2022-12-18T16:09:39;-2.00;68.60
71563;DHT22;59391;52.504;13.438;2022-12-18T16:12:06;-2.00;68.60
71563;DHT22;59391;52.504;13.438;2022-12-18T16:14:39;-2.00;68.50
71563;DHT22;59391;52.504;13.438;2022-12-18T16:17:09;-2.00;68.30
71563;DHT22;59391;52.504;13.438;2022-12-18T16:19:35;-2.00;68.30
71563;DHT22;59391;52.504;13.438;2022-12-18T16:22:01;-2.00;68.30
71563;DHT22;59391;52.504;13.438;2022-12-18T16:24:31;-2.00;68.30
71563;DHT22;59391;52.504;13.438;2022-12-18T16:27:01;-2.00;68.30
71563;DHT22;59391;52.504;13.438;2022-12-18T16:29:28;-2.00;68.30
71563;DHT22;59391;52.504;13.438;2022-12-18T16:31:55;-2.00;68.30
71563;DHT22;59391;52.504;13.438;2022-12-18T16:34:32;-1.90;68.10
71563;DHT22;59391;52.504;13.438;2022-12-18T16:37:01;-2.00;68.10
71563;DHT22;59391;52.504;13.438;2022-12-18T16:39:29;-2.00;68.10
71563;DHT22;59391;52.504;13.438;2022-12-18T16:41:56;-2.00;67.90
71563;DHT22;59391;52.504;13.438;2022-12-18T16:44:22;-2.00;67.90
71563;DHT22;59391;52.504;13.438;2022-12-18T16:46:48;-2.00;67.90
71563;DHT22;59391;52.504;13.438;2022-12-18T16:49:15;-1.90;67.90
71563;DHT22;59391;52.504;13.438;2022-12-18T16:51:42;-2.00;67.70
71563;DHT22;59391;52.504;13.438;2022-12-18T16:54:08;-2.00;67.70
71563;DHT22;59391;52.504;13.438;2022-12-18T16:56:34;-2.00;67.30
71563;DHT22;59391;52.504;13.438;2022-12-18T16:59:01;-2.00;67.20
71563;DHT22;59391;52.504;13.438;2022-12-18T17:01:29;-2.00;67.40
71563;DHT22;59391;52.504;13.438;2022-12-18T17:03:58;-2.00;67.30